Startpagina
METAR-TAF:

METAR-TAF

Vliegvelden :

Euro, Nederland

Productieplatform

breedte: 51-59-52N, lengte: 3-16-30E, hoogte: 18 m

Actueel weer

Dit bericht is 25 minuten geleden gemaakt, om 05:55 UTC
Wind 41 kt uit het zuidwesten met uitschieters tot 54 kt
Temperatuur 11°C
Vochtigheid 76%
Druk 986 hPa
Zicht 10 km of meer

METAR: EHSA 180555Z AUTO 22041G54KT 9999 ///////// 11/07 Q0986 W07/H33

Tijdstip: 07:20 (06:20 UTC)


TAF: ontbreekt

Waarnemingen en weersverwachtingen van meer dan 4000 vliegvelden (METAR en TAF).

De beschikbare stations zijn de gele en rode punten op de kaart.

Ga met uw muis naar het station om de naam te zien.

Klik dan om waarnemingen en weersverwachtingen te zien.

kaart wijzigen: klik op de groene knoppen met een zwart kruis om in te zoomen, op de groene knop met een streepje om uit te zoomen of op de groene pijlen voor aangrenzende kaarten.


METAR-TAF: